sensor_id;sensor_type;location;lat;lon;timestamp;pressure;altitude;pressure_sealevel;temperature;humidity
77871;BME280;67067;46.850;7.578;2023-02-10T00:00:54;97031.03;;;-4.27;49.70
77871;BME280;67067;46.850;7.578;2023-02-10T00:01:54;97035.97;;;-4.24;49.69
77871;BME280;67067;46.850;7.578;2023-02-10T00:02:55;97026.06;;;-4.30;49.83
77871;BME280;67067;46.850;7.578;2023-02-10T00:03:59;97024.44;;;-4.32;49.82
77871;BME280;67067;46.850;7.578;2023-02-10T00:05:00;97036.66;;;-4.34;49.69
77871;BME280;67067;46.850;7.578;2023-02-10T00:06:02;97040.88;;;-4.33;49.69
77871;BME280;67067;46.850;7.578;2023-02-10T00:07:03;97042.53;;;-4.32;49.78
77871;BME280;67067;46.850;7.578;2023-02-10T00:08:06;97043.25;;;-4.29;49.52
77871;BME280;67067;46.850;7.578;2023-02-10T00:09:06;97050.06;;;-4.28;49.59
77871;BME280;67067;46.850;7.578;2023-02-10T00:10:07;97037.84;;;-4.26;49.56
77871;BME280;67067;46.850;7.578;2023-02-10T00:11:11;97042.56;;;-4.20;49.40
77871;BME280;67067;46.850;7.578;2023-02-10T00:12:11;97040.53;;;-4.28;49.35
77871;BME280;67067;46.850;7.578;2023-02-10T00:13:12;97036.53;;;-4.21;49.41
77871;BME280;67067;46.850;7.578;2023-02-10T00:14:14;97038.19;;;-4.20;49.20
77871;BME280;67067;46.850;7.578;2023-02-10T00:15:15;97054.31;;;-4.16;49.16
77871;BME280;67067;46.850;7.578;2023-02-10T00:16:16;97046.56;;;-4.16;49.19
77871;BME280;67067;46.850;7.578;2023-02-10T00:17:16;97043.88;;;-4.14;49.18
77871;BME280;67067;46.850;7.578;2023-02-10T00:18:17;97058.22;;;-4.10;49.36
77871;BME280;67067;46.850;7.578;2023-02-10T00:19:22;97046.00;;;-4.08;49.00
77871;BME280;67067;46.850;7.578;2023-02-10T00:20:23;97049.19;;;-4.05;48.90
77871;BME280;67067;46.850;7.578;2023-02-10T00:21:24;97042.00;;;-4.12;49.23
77871;BME280;67067;46.850;7.578;2023-02-10T00:22:24;97043.28;;;-4.07;49.20
77871;BME280;67067;46.850;7.578;2023-02-10T00:23:25;97044.72;;;-4.03;49.07
77871;BME280;67067;46.850;7.578;2023-02-10T00:24:28;97046.50;;;-4.03;48.90
77871;BME280;67067;46.850;7.578;2023-02-10T00:25:31;97048.22;;;-4.04;48.93
77871;BME280;67067;46.850;7.578;2023-02-10T00:26:31;97043.06;;;-4.04;48.93
77871;BME280;67067;46.850;7.578;2023-02-10T00:27:32;97049.06;;;-4.03;49.00
77871;BME280;67067;46.850;7.578;2023-02-10T00:28:33;97043.06;;;-4.04;48.82
77871;BME280;67067;46.850;7.578;2023-02-10T00:29:34;97038.59;;;-4.02;48.61
77871;BME280;67067;46.850;7.578;2023-02-10T00:30:36;97032.00;;;-4.06;48.79
77871;BME280;67067;46.850;7.578;2023-02-10T00:31:37;97033.16;;;-4.21;48.90
77871;BME280;67067;46.850;7.578;2023-02-10T00:32:37;97035.88;;;-4.11;49.06
77871;BME280;67067;46.850;7.578;2023-02-10T00:33:41;97038.34;;;-4.10;49.01
77871;BME280;67067;46.850;7.578;2023-02-10T00:34:43;97040.22;;;-4.12;48.81
77871;BME280;67067;46.850;7.578;2023-02-10T00:35:44;97037.78;;;-4.13;48.87
77871;BME280;67067;46.850;7.578;2023-02-10T00:36:44;97037.16;;;-4.17;48.89
77871;BME280;67067;46.850;7.578;2023-02-10T00:37:45;97032.22;;;-4.20;48.69
77871;BME280;67067;46.850;7.578;2023-02-10T00:38:49;97039.25;;;-4.22;48.82
77871;BME280;67067;46.850;7.578;2023-02-10T00:39:53;97028.91;;;-4.22;48.79
77871;BME280;67067;46.850;7.578;2023-02-10T00:40:55;97032.44;;;-4.23;48.66
77871;BME280;67067;46.850;7.578;2023-02-10T00:41:55;97039.25;;;-4.22;48.60
77871;BME280;67067;46.850;7.578;2023-02-10T00:42:56;97046.19;;;-4.23;48.72
77871;BME280;67067;46.850;7.578;2023-02-10T00:43:56;97038.56;;;-4.24;48.69
77871;BME280;67067;46.850;7.578;2023-02-10T00:44:57;97035.97;;;-4.24;48.66
77871;BME280;67067;46.850;7.578;2023-02-10T00:45:58;97042.78;;;-4.23;48.49
77871;BME280;67067;46.850;7.578;2023-02-10T00:46:58;97047.34;;;-4.27;48.51
77871;BME280;67067;46.850;7.578;2023-02-10T00:48:00;97042.41;;;-4.30;48.50
77871;BME280;67067;46.850;7.578;2023-02-10T00:49:02;97043.25;;;-4.29;48.82
77871;BME280;67067;46.850;7.578;2023-02-10T00:50:11;97040.88;;;-4.33;48.56
77871;BME280;67067;46.850;7.578;2023-02-10T00:51:14;97051.00;;;-4.29;48.54
77871;BME280;67067;46.850;7.578;2023-02-10T00:52:17;97045.13;;;-4.32;48.74
77871;BME280;67067;46.850;7.578;2023-02-10T00:53:18;97050.50;;;-4.35;48.66
77871;BME280;67067;46.850;7.578;2023-02-10T00:54:19;97047.22;;;-4.37;48.61
77871;BME280;67067;46.850;7.578;2023-02-10T00:55:21;97053.19;;;-4.36;48.82
77871;BME280;67067;46.850;7.578;2023-02-10T00:56:24;97048.16;;;-4.38;48.97
77871;BME280;67067;46.850;7.578;2023-02-10T00:57:24;97048.16;;;-4.38;48.85
77871;BME280;67067;46.850;7.578;2023-02-10T00:58:26;97054.25;;;-4.39;48.92
77871;BME280;67067;46.850;7.578;2023-02-10T00:59:26;97056.13;;;-4.41;49.15
77871;BME280;67067;46.850;7.578;2023-02-10T01:00:27;97055.28;;;-4.41;49.28
77871;BME280;67067;46.850;7.578;2023-02-10T01:01:30;97055.91;;;-4.38;49.28
77871;BME280;67067;46.850;7.578;2023-02-10T01:02:31;97057.78;;;-4.40;49.12
77871;BME280;67067;46.850;7.578;2023-02-10T01:03:34;97053.44;;;-4.39;49.17
77871;BME280;67067;46.850;7.578;2023-02-10T01:04:35;97059.44;;;-4.39;49.16
77871;BME280;67067;46.850;7.578;2023-02-10T01:05:36;97055.91;;;-4.38;49.01
77871;BME280;67067;46.850;7.578;2023-02-10T01:06:36;97059.31;;;-4.37;49.16
77871;BME280;67067;46.850;7.578;2023-02-10T01:07:40;97066.97;;;-4.36;49.02
77871;BME280;67067;46.850;7.578;2023-02-10T01:08:40;97062.72;;;-4.37;49.07
77871;BME280;67067;46.850;7.578;2023-02-10T01:09:44;97061.09;;;-4.38;49.29
77871;BME280;67067;46.850;7.578;2023-02-10T01:10:44;97060.16;;;-4.37;49.15
77871;BME280;67067;46.850;7.578;2023-02-10T01:11:45;97058.28;;;-4.35;49.19
77871;BME280;67067;46.850;7.578;2023-02-10T01:12:45;97067.91;;;-4.37;49.12
77871;BME280;67067;46.850;7.578;2023-02-10T01:13:46;97064.38;;;-4.36;49.10
77871;BME280;67067;46.850;7.578;2023-02-10T01:14:47;97064.38;;;-4.36;49.16
77871;BME280;67067;46.850;7.578;2023-02-10T01:15:50;97066.03;;;-4.35;49.08
77871;BME280;67067;46.850;7.578;2023-02-10T01:16:50;97067.78;;;-4.35;49.23
77871;BME280;67067;46.850;7.578;2023-02-10T01:17:53;97063.75;;;-4.39;49.33
77871;BME280;67067;46.850;7.578;2023-02-10T01:18:53;97066.34;;;-4.39;49.18
77871;BME280;67067;46.850;7.578;2023-02-10T01:19:56;97064.59;;;-4.39;49.38
77871;BME280;67067;46.850;7.578;2023-02-10T01:21:09;97059.44;;;-4.39;49.28
77871;BME280;67067;46.850;7.578;2023-02-10T01:22:09;97067.91;;;-4.37;49.13
77871;BME280;67067;46.850;7.578;2023-02-10T01:23:12;97066.03;;;-4.35;49.04
77871;BME280;67067;46.850;7.578;2023-02-10T01:24:12;97062.72;;;-4.37;48.92
77871;BME280;67067;46.850;7.578;2023-02-10T01:25:15;97058.28;;;-4.35;48.99
77871;BME280;67067;46.850;7.578;2023-02-10T01:26:16;97059.53;;;-4.40;49.13
77871;BME280;67067;46.850;7.578;2023-02-10T01:27:16;97060.38;;;-4.40;49.16
77871;BME280;67067;46.850;7.578;2023-02-10T01:28:19;97064.59;;;-4.39;48.90
77871;BME280;67067;46.850;7.578;2023-02-10T01:29:19;97062.34;;;-4.43;48.99
77871;BME280;67067;46.850;7.578;2023-02-10T01:30:22;97072.91;;;-4.47;49.10
77871;BME280;67067;46.850;7.578;2023-02-10T01:31:23;97067.16;;;-4.50;48.96
77871;BME280;67067;46.850;7.578;2023-02-10T01:32:26;97064.03;;;-4.55;48.88
77871;BME280;67067;46.850;7.578;2023-02-10T01:33:26;97068.63;;;-4.59;48.85
77871;BME280;67067;46.850;7.578;2023-02-10T01:34:27;97073.09;;;-4.61;48.78
77871;BME280;67067;46.850;7.578;2023-02-10T01:35:27;97072.47;;;-4.65;49.02
77871;BME280;67067;46.850;7.578;2023-02-10T01:36:28;97071.75;;;-4.67;49.12
77871;BME280;67067;46.850;7.578;2023-02-10T01:37:28;97085.59;;;-4.68;48.83
77871;BME280;67067;46.850;7.578;2023-02-10T01:38:29;97079.84;;;-4.71;48.89
77871;BME280;67067;46.850;7.578;2023-02-10T01:39:32;97079.00;;;-4.72;48.98
77871;BME280;67067;46.850;7.578;2023-02-10T01:40:34;97079.00;;;-4.72;48.85
77871;BME280;67067;46.850;7.578;2023-02-10T01:41:36;97077.34;;;-4.73;48.87
77871;BME280;67067;46.850;7.578;2023-02-10T01:42:37;97072.53;;;-4.78;48.63
77871;BME280;67067;46.850;7.578;2023-02-10T01:46:36;97061.09;;;-4.86;48.98
77871;BME280;67067;46.850;7.578;2023-02-10T01:47:36;97065.41;;;-4.87;49.05
77871;BME280;67067;46.850;7.578;2023-02-10T01:48:37;97068.53;;;-4.82;49.09
77871;BME280;67067;46.850;7.578;2023-02-10T01:49:48;97076.59;;;-4.86;48.90
77871;BME280;67067;46.850;7.578;2023-02-10T01:51:00;97071.63;;;-4.90;48.95
77871;BME280;67067;46.850;7.578;2023-02-10T01:52:05;97064.91;;;-4.92;49.03
77871;BME280;67067;46.850;7.578;2023-02-10T01:53:08;97069.28;;;-4.93;49.00
77871;BME280;67067;46.850;7.578;2023-02-10T01:54:11;97070.31;;;-4.95;48.73
77871;BME280;67067;46.850;7.578;2023-02-10T01:55:16;97076.41;;;-4.96;48.93
77871;BME280;67067;46.850;7.578;2023-02-10T01:56:17;97070.63;;;-5.00;48.99
77871;BME280;67067;46.850;7.578;2023-02-10T01:57:20;97076.84;;;-5.02;49.28
77871;BME280;67067;46.850;7.578;2023-02-10T01:58:24;97081.19;;;-5.03;49.38
77871;BME280;67067;46.850;7.578;2023-02-10T01:59:30;97076.03;;;-5.03;49.32
77871;BME280;67067;46.850;7.578;2023-02-10T02:00:31;97074.38;;;-5.04;49.60
77871;BME280;67067;46.850;7.578;2023-02-10T02:01:35;97079.53;;;-5.04;49.49
77871;BME280;67067;46.850;7.578;2023-02-10T02:02:39;97076.03;;;-5.03;49.41
77871;BME280;67067;46.850;7.578;2023-02-10T02:03:42;97078.59;;;-5.03;49.45
77871;BME280;67067;46.850;7.578;2023-02-10T02:04:50;97085.28;;;-5.00;49.43
77871;BME280;67067;46.850;7.578;2023-02-10T02:05:51;97081.06;;;-5.01;49.27
77871;BME280;67067;46.850;7.578;2023-02-10T02:06:54;97081.91;;;-5.01;49.23
77871;BME280;67067;46.850;7.578;2023-02-10T02:07:59;97088.22;;;-5.05;49.53
77871;BME280;67067;46.850;7.578;2023-02-10T02:09:02;97079.75;;;-5.07;49.37
77871;BME280;67067;46.850;7.578;2023-02-10T02:10:05;97084.78;;;-5.06;49.53
77871;BME280;67067;46.850;7.578;2023-02-10T02:12:56;97076.66;;;-5.12;49.36
77871;BME280;67067;46.850;7.578;2023-02-10T02:15:33;97078.31;;;-5.11;49.55
77871;BME280;67067;46.850;7.578;2023-02-10T02:18:13;97074.19;;;-5.14;49.84
77871;BME280;67067;46.850;7.578;2023-02-10T02:22:44;97086.50;;;-5.17;49.66
77871;BME280;67067;46.850;7.578;2023-02-10T02:23:57;97080.41;;;-5.16;49.76
77871;BME280;67067;46.850;7.578;2023-02-10T02:32:14;97108.28;;;-5.22;49.79
77871;BME280;67067;46.850;7.578;2023-02-10T02:33:18;97099.81;;;-5.24;49.77
77871;BME280;67067;46.850;7.578;2023-02-10T02:35:32;97101.25;;;-5.20;49.65
77871;BME280;67067;46.850;7.578;2023-02-10T02:36:41;97107.25;;;-5.19;49.74
77871;BME280;67067;46.850;7.578;2023-02-10T02:37:46;97103.63;;;-5.16;49.59
77871;BME280;67067;46.850;7.578;2023-02-10T02:38:49;97095.91;;;-5.16;49.63
77871;BME280;67067;46.850;7.578;2023-02-10T02:39:53;97092.78;;;-5.22;49.80
77871;BME280;67067;46.850;7.578;2023-02-10T02:40:58;97094.25;;;-5.17;49.88
77871;BME280;67067;46.850;7.578;2023-02-10T02:42:13;97097.72;;;-5.19;49.71
77871;BME280;67067;46.850;7.578;2023-02-10T02:43:17;97096.81;;;-5.17;49.81
77871;BME280;67067;46.850;7.578;2023-02-10T02:44:18;97089.69;;;-5.14;49.56
77871;BME280;67067;46.850;7.578;2023-02-10T02:45:30;97076.16;;;-5.17;49.64
77871;BME280;67067;46.850;7.578;2023-02-10T02:46:54;97073.91;;;-5.22;49.38
77871;BME280;67067;46.850;7.578;2023-02-10T02:48:20;97077.50;;;-5.25;49.46
77871;BME280;67067;46.850;7.578;2023-02-10T02:49:34;97075.75;;;-5.24;49.63
77871;BME280;67067;46.850;7.578;2023-02-10T02:50:59;97072.44;;;-5.26;49.78
77871;BME280;67067;46.850;7.578;2023-02-10T02:52:14;97075.03;;;-5.26;49.56
77871;BME280;67067;46.850;7.578;2023-02-10T02:54:49;97069.47;;;-5.33;49.81
77871;BME280;67067;46.850;7.578;2023-02-10T02:58:20;97064.72;;;-5.39;49.92
77871;BME280;67067;46.850;7.578;2023-02-10T02:59:38;97073.91;;;-5.35;49.91
77871;BME280;67067;46.850;7.578;2023-02-10T03:00:41;97071.44;;;-5.37;49.86
77871;BME280;67067;46.850;7.578;2023-02-10T03:01:51;97075.97;;;-5.40;49.75
77871;BME280;67067;46.850;7.578;2023-02-10T03:02:56;97077.63;;;-5.39;49.78
77871;BME280;67067;46.850;7.578;2023-02-10T03:03:58;97078.78;;;-5.43;50.04
77871;BME280;67067;46.850;7.578;2023-02-10T03:04:59;97078.78;;;-5.43;49.93
77871;BME280;67067;46.850;7.578;2023-02-10T03:06:00;97077.13;;;-5.44;49.73
77871;BME280;67067;46.850;7.578;2023-02-10T03:07:02;97087.34;;;-5.43;49.64
77871;BME280;67067;46.850;7.578;2023-02-10T03:08:03;97084.16;;;-5.46;49.85
77871;BME280;67067;46.850;7.578;2023-02-10T03:09:04;97080.63;;;-5.45;49.84
77871;BME280;67067;46.850;7.578;2023-02-10T03:10:05;97078.06;;;-5.45;49.74
77871;BME280;67067;46.850;7.578;2023-02-10T03:11:06;97084.34;;;-5.50;49.97
77871;BME280;67067;46.850;7.578;2023-02-10T03:12:07;97090.44;;;-5.51;49.95
77871;BME280;67067;46.850;7.578;2023-02-10T03:13:12;97087.03;;;-5.51;49.94
77871;BME280;67067;46.850;7.578;2023-02-10T03:14:13;97094.69;;;-5.50;50.02
77871;BME280;67067;46.850;7.578;2023-02-10T03:15:16;97092.09;;;-5.50;49.71
77871;BME280;67067;46.850;7.578;2023-02-10T03:16:16;97099.84;;;-5.50;49.67
77871;BME280;67067;46.850;7.578;2023-02-10T03:17:24;97092.19;;;-5.51;49.68
77871;BME280;67067;46.850;7.578;2023-02-10T03:18:25;97099.84;;;-5.50;49.46
77871;BME280;67067;46.850;7.578;2023-02-10T03:19:26;97101.06;;;-5.55;49.60
77871;BME280;67067;46.850;7.578;2023-02-10T03:20:29;97095.09;;;-5.56;49.71
77871;BME280;67067;46.850;7.578;2023-02-10T03:21:29;97097.97;;;-5.60;49.88
77871;BME280;67067;46.850;7.578;2023-02-10T03:22:32;97086.94;;;-5.63;50.01
77871;BME280;67067;46.850;7.578;2023-02-10T03:23:32;97092.22;;;-5.64;49.96
77871;BME280;67067;46.850;7.578;2023-02-10T03:24:35;97091.16;;;-5.61;50.19
77871;BME280;67067;46.850;7.578;2023-02-10T03:25:36;97093.66;;;-5.60;50.16
77871;BME280;67067;46.850;7.578;2023-02-10T03:26:37;97090.94;;;-5.58;49.84
77871;BME280;67067;46.850;7.578;2023-02-10T03:27:37;97098.81;;;-5.60;49.82
77871;BME280;67067;46.850;7.578;2023-02-10T03:28:38;97089.41;;;-5.61;49.94
77871;BME280;67067;46.850;7.578;2023-02-10T03:29:41;97086.84;;;-5.61;50.09
77871;BME280;67067;46.850;7.578;2023-02-10T03:30:42;97089.31;;;-5.59;50.01
77871;BME280;67067;46.850;7.578;2023-02-10T03:31:47;97080.03;;;-5.62;50.21
77871;BME280;67067;46.850;7.578;2023-02-10T03:32:47;97077.53;;;-5.64;50.26
77871;BME280;67067;46.850;7.578;2023-02-10T03:33:51;97079.19;;;-5.63;50.19
77871;BME280;67067;46.850;7.578;2023-02-10T03:34:51;97081.69;;;-5.61;50.27
77871;BME280;67067;46.850;7.578;2023-02-10T03:35:52;97081.69;;;-5.61;50.24
77871;BME280;67067;46.850;7.578;2023-02-10T03:36:52;97081.69;;;-5.61;50.33
77871;BME280;67067;46.850;7.578;2023-02-10T03:37:53;97077.34;;;-5.60;50.18
77871;BME280;67067;46.850;7.578;2023-02-10T03:38:56;97076.31;;;-5.58;50.26
77871;BME280;67067;46.850;7.578;2023-02-10T03:39:57;97072.16;;;-5.60;50.38
77871;BME280;67067;46.850;7.578;2023-02-10T03:40:57;97074.66;;;-5.59;50.20
77871;BME280;67067;46.850;7.578;2023-02-10T03:42:00;97082.06;;;-5.54;50.03
77871;BME280;67067;46.850;7.578;2023-02-10T03:43:01;97075.88;;;-5.52;49.95
77871;BME280;67067;46.850;7.578;2023-02-10T03:44:04;97079.28;;;-5.51;49.97
77871;BME280;67067;46.850;7.578;2023-02-10T03:45:04;97073.81;;;-5.46;50.04
77871;BME280;67067;46.850;7.578;2023-02-10T03:46:05;97080.63;;;-5.45;50.02
77871;BME280;67067;46.850;7.578;2023-02-10T03:47:05;97082.28;;;-5.44;50.07
77871;BME280;67067;46.850;7.578;2023-02-10T03:48:06;97077.84;;;-5.42;50.13
77871;BME280;67067;46.850;7.578;2023-02-10T03:49:06;97086.31;;;-5.40;50.00
77871;BME280;67067;46.850;7.578;2023-02-10T03:50:07;97093.97;;;-5.39;49.96
77871;BME280;67067;46.850;7.578;2023-02-10T03:51:08;97094.88;;;-5.40;50.11
77871;BME280;67067;46.850;7.578;2023-02-10T03:52:09;97099.00;;;-5.37;49.96
77871;BME280;67067;46.850;7.578;2023-02-10T03:53:12;97094.56;;;-5.35;49.78
77871;BME280;67067;46.850;7.578;2023-02-10T03:54:12;97093.84;;;-5.37;49.88
77871;BME280;67067;46.850;7.578;2023-02-10T03:55:13;97091.16;;;-5.36;49.85
77871;BME280;67067;46.850;7.578;2023-02-10T03:56:17;97085.50;;;-5.41;49.94
77871;BME280;67067;46.850;7.578;2023-02-10T03:57:20;97094.88;;;-5.40;50.05
77871;BME280;67067;46.850;7.578;2023-02-10T03:58:21;97098.91;;;-5.49;50.40
77871;BME280;67067;46.850;7.578;2023-02-10T03:59:22;97103.13;;;-5.47;50.46
77871;BME280;67067;46.850;7.578;2023-02-10T04:00:28;97101.91;;;-5.42;50.19
77871;BME280;67067;46.850;7.578;2023-02-10T04:01:32;97103.56;;;-5.41;50.16
77871;BME280;67067;46.850;7.578;2023-02-10T04:02:33;97104.59;;;-5.43;50.26
77871;BME280;67067;46.850;7.578;2023-02-10T04:03:34;97106.22;;;-5.42;50.14
77871;BME280;67067;46.850;7.578;2023-02-10T04:04:34;97105.22;;;-5.40;50.09
77871;BME280;67067;46.850;7.578;2023-02-10T04:05:35;97105.22;;;-5.40;50.05
77871;BME280;67067;46.850;7.578;2023-02-10T04:06:35;97105.22;;;-5.40;50.30
77871;BME280;67067;46.850;7.578;2023-02-10T04:07:36;97103.34;;;-5.38;50.23
77871;BME280;67067;46.850;7.578;2023-02-10T04:08:37;97100.88;;;-5.39;50.29
77871;BME280;67067;46.850;7.578;2023-02-10T04:09:40;97106.22;;;-5.42;50.33
77871;BME280;67067;46.850;7.578;2023-02-10T04:10:43;97099.22;;;-5.40;50.17
77871;BME280;67067;46.850;7.578;2023-02-10T04:11:43;97100.66;;;-5.36;50.20
77871;BME280;67067;46.850;7.578;2023-02-10T04:12:44;97104.06;;;-5.36;50.07
77871;BME280;67067;46.850;7.578;2023-02-10T04:13:44;97103.13;;;-5.35;50.17
77871;BME280;67067;46.850;7.578;2023-02-10T04:14:47;97097.78;;;-5.31;50.05
77871;BME280;67067;46.850;7.578;2023-02-10T04:15:47;97100.44;;;-5.33;50.16
77871;BME280;67067;46.850;7.578;2023-02-10T04:16:48;97094.47;;;-5.34;50.11
77871;BME280;67067;46.850;7.578;2023-02-10T04:17:49;97099.50;;;-5.32;50.05
77871;BME280;67067;46.850;7.578;2023-02-10T04:18:49;97098.56;;;-5.31;49.88
77871;BME280;67067;46.850;7.578;2023-02-10T04:19:52;97095.91;;;-5.29;49.93
77871;BME280;67067;46.850;7.578;2023-02-10T04:20:52;97098.56;;;-5.31;50.03
77871;BME280;67067;46.850;7.578;2023-02-10T04:21:53;97092.91;;;-5.36;50.00
77871;BME280;67067;46.850;7.578;2023-02-10T04:22:53;97096.72;;;-5.29;50.17
77871;BME280;67067;46.850;7.578;2023-02-10T04:23:56;97097.56;;;-5.28;50.11
77871;BME280;67067;46.850;7.578;2023-02-10T04:24:59;97094.75;;;-5.25;50.09
77871;BME280;67067;46.850;7.578;2023-02-10T04:26:02;97097.94;;;-5.22;49.74
77871;BME280;67067;46.850;7.578;2023-02-10T04:27:02;97097.94;;;-5.22;49.86
77871;BME280;67067;46.850;7.578;2023-02-10T04:28:03;97100.66;;;-5.23;49.58
77871;BME280;67067;46.850;7.578;2023-02-10T04:29:04;97100.66;;;-5.23;49.68
77871;BME280;67067;46.850;7.578;2023-02-10T04:30:04;97098.16;;;-5.25;49.65
77871;BME280;67067;46.850;7.578;2023-02-10T04:31:05;97103.53;;;-5.28;49.69
77871;BME280;67067;46.850;7.578;2023-02-10T04:32:08;97098.56;;;-5.31;49.55
77871;BME280;67067;46.850;7.578;2023-02-10T04:33:11;97098.56;;;-5.31;49.57
77871;BME280;67067;46.850;7.578;2023-02-10T04:34:14;97105.81;;;-5.36;49.55
77871;BME280;67067;46.850;7.578;2023-02-10T04:35:15;97099.22;;;-5.40;49.61
77871;BME280;67067;46.850;7.578;2023-02-10T04:36:17;97103.56;;;-5.41;49.29
77871;BME280;67067;46.850;7.578;2023-02-10T04:37:18;97109.44;;;-5.39;49.26
77871;BME280;67067;46.850;7.578;2023-02-10T04:38:21;97107.06;;;-5.42;49.24
77871;BME280;67067;46.850;7.578;2023-02-10T04:39:27;97112.13;;;-5.40;49.28
77871;BME280;67067;46.850;7.578;2023-02-10T04:40:30;97113.97;;;-5.42;49.29
77871;BME280;67067;46.850;7.578;2023-02-10T04:41:32;97108.31;;;-5.47;49.38
77871;BME280;67067;46.850;7.578;2023-02-10T04:42:33;97110.16;;;-5.50;49.24
77871;BME280;67067;46.850;7.578;2023-02-10T04:43:34;97111.81;;;-5.49;49.12
77871;BME280;67067;46.850;7.578;2023-02-10T04:44:34;97108.50;;;-5.51;49.30
77871;BME280;67067;46.850;7.578;2023-02-10T04:45:35;97111.31;;;-5.54;49.24
77871;BME280;67067;46.850;7.578;2023-02-10T04:46:38;97108.00;;;-5.56;49.11
77871;BME280;67067;46.850;7.578;2023-02-10T04:47:39;97108.00;;;-5.56;49.18
77871;BME280;67067;46.850;7.578;2023-02-10T04:48:40;97122.97;;;-5.61;49.24
77871;BME280;67067;46.850;7.578;2023-02-10T04:49:42;97116.16;;;-5.62;49.23
77871;BME280;67067;46.850;7.578;2023-02-10T04:50:43;97120.47;;;-5.63;49.37
77871;BME280;67067;46.850;7.578;2023-02-10T04:51:45;97122.13;;;-5.61;49.17
77871;BME280;67067;46.850;7.578;2023-02-10T04:52:46;97129.06;;;-5.62;49.47
77871;BME280;67067;46.850;7.578;2023-02-10T04:53:49;97124.00;;;-5.64;49.41
77871;BME280;67067;46.850;7.578;2023-02-10T04:54:52;97122.25;;;-5.63;49.37
77871;BME280;67067;46.850;7.578;2023-02-10T04:55:53;97119.88;;;-5.66;49.47
77871;BME280;67067;46.850;7.578;2023-02-10T04:56:53;97122.44;;;-5.66;49.35
77871;BME280;67067;46.850;7.578;2023-02-10T04:57:54;97126.91;;;-5.68;49.55
77871;BME280;67067;46.850;7.578;2023-02-10T04:58:54;97120.09;;;-5.69;49.24
77871;BME280;67067;46.850;7.578;2023-02-10T04:59:57;97121.72;;;-5.68;49.19
77871;BME280;67067;46.850;7.578;2023-02-10T05:00:58;97121.09;;;-5.72;49.38
77871;BME280;67067;46.850;7.578;2023-02-10T05:01:58;97125.44;;;-5.72;49.39
77871;BME280;67067;46.850;7.578;2023-02-10T05:02:59;97120.38;;;-5.74;49.29
77871;BME280;67067;46.850;7.578;2023-02-10T05:04:04;97118.84;;;-5.76;49.18
77871;BME280;67067;46.850;7.578;2023-02-10T05:05:05;97119.84;;;-5.79;49.27
77871;BME280;67067;46.850;7.578;2023-02-10T05:06:13;97117.19;;;-5.78;49.31
77871;BME280;67067;46.850;7.578;2023-02-10T05:07:14;97124.81;;;-5.76;49.26
77871;BME280;67067;46.850;7.578;2023-02-10T05:08:14;97124.19;;;-5.80;49.17
77871;BME280;67067;46.850;7.578;2023-02-10T05:09:17;97122.56;;;-5.81;49.27
77871;BME280;67067;46.850;7.578;2023-02-10T05:10:20;97127.81;;;-5.82;49.36
77871;BME280;67067;46.850;7.578;2023-02-10T05:11:23;97115.81;;;-5.83;49.34
77871;BME280;67067;46.850;7.578;2023-02-10T05:12:24;97107.28;;;-5.84;49.41
77871;BME280;67067;46.850;7.578;2023-02-10T05:13:24;97117.59;;;-5.84;49.59
77871;BME280;67067;46.850;7.578;2023-02-10T05:14:25;97108.19;;;-5.85;49.62
77871;BME280;67067;46.850;7.578;2023-02-10T05:15:25;97109.09;;;-5.86;49.65
77871;BME280;67067;46.850;7.578;2023-02-10T05:16:26;97109.94;;;-5.85;49.66
77871;BME280;67067;46.850;7.578;2023-02-10T05:17:26;97120.34;;;-5.87;49.60
77871;BME280;67067;46.850;7.578;2023-02-10T05:18:27;97118.81;;;-5.89;49.76
77871;BME280;67067;46.850;7.578;2023-02-10T05:19:30;97117.97;;;-5.90;49.73
77871;BME280;67067;46.850;7.578;2023-02-10T05:20:31;97108.50;;;-5.89;49.77
77871;BME280;67067;46.850;7.578;2023-02-10T05:21:31;97120.34;;;-5.87;49.71
77871;BME280;67067;46.850;7.578;2023-02-10T05:22:38;97126.44;;;-5.88;49.62
77871;BME280;67067;46.850;7.578;2023-02-10T05:23:39;97125.50;;;-5.87;49.62
77871;BME280;67067;46.850;7.578;2023-02-10T05:24:40;97125.63;;;-5.88;49.56
77871;BME280;67067;46.850;7.578;2023-02-10T05:25:41;97129.94;;;-5.89;49.37
77871;BME280;67067;46.850;7.578;2023-02-10T05:26:44;97129.00;;;-5.88;49.32
77871;BME280;67067;46.850;7.578;2023-02-10T05:27:45;97135.31;;;-5.92;49.39
77871;BME280;67067;46.850;7.578;2023-02-10T05:28:47;97132.00;;;-5.94;49.27
77871;BME280;67067;46.850;7.578;2023-02-10T05:29:51;97136.56;;;-5.98;49.52
77871;BME280;67067;46.850;7.578;2023-02-10T05:31:25;97130.44;;;-6.10;49.51
77871;BME280;67067;46.850;7.578;2023-02-10T05:32:26;97127.75;;;-6.08;49.70
77871;BME280;67067;46.850;7.578;2023-02-10T05:33:26;97131.16;;;-6.08;49.71
77871;BME280;67067;46.850;7.578;2023-02-10T05:34:29;97122.50;;;-6.07;49.58
77871;BME280;67067;46.850;7.578;2023-02-10T05:35:30;97131.16;;;-6.08;49.75
77871;BME280;67067;46.850;7.578;2023-02-10T05:36:30;97121.03;;;-6.11;49.82
77871;BME280;67067;46.850;7.578;2023-02-10T05:37:33;97118.38;;;-6.09;49.77
77871;BME280;67067;46.850;7.578;2023-02-10T05:38:34;97114.75;;;-6.07;49.87
77871;BME280;67067;46.850;7.578;2023-02-10T05:39:34;97114.03;;;-6.09;50.20
77871;BME280;67067;46.850;7.578;2023-02-10T05:40:35;97115.06;;;-6.11;50.24
77871;BME280;67067;46.850;7.578;2023-02-10T05:41:35;97114.97;;;-6.10;50.29
77871;BME280;67067;46.850;7.578;2023-02-10T05:42:38;97115.69;;;-6.08;50.43
77871;BME280;67067;46.850;7.578;2023-02-10T05:43:39;97111.31;;;-6.20;50.50
77871;BME280;67067;46.850;7.578;2023-02-10T05:44:40;97122.91;;;-6.13;50.48
77871;BME280;67067;46.850;7.578;2023-02-10T05:45:41;97113.94;;;-6.07;50.32
77871;BME280;67067;46.850;7.578;2023-02-10T05:46:42;97114.75;;;-6.07;50.36
77871;BME280;67067;46.850;7.578;2023-02-10T05:47:42;97105.38;;;-6.08;50.73
77871;BME280;67067;46.850;7.578;2023-02-10T05:48:43;97112.91;;;-6.04;50.19
77871;BME280;67067;46.850;7.578;2023-02-10T05:49:45;97105.81;;;-6.01;50.15
77871;BME280;67067;46.850;7.578;2023-02-10T05:50:50;97110.13;;;-6.01;49.89
77871;BME280;67067;46.850;7.578;2023-02-10T05:51:55;97108.25;;;-5.99;50.05
77871;BME280;67067;46.850;7.578;2023-02-10T05:52:55;97116.72;;;-5.97;50.25
77871;BME280;67067;46.850;7.578;2023-02-10T05:53:56;97107.53;;;-6.01;50.07
77871;BME280;67067;46.850;7.578;2023-02-10T05:54:56;97113.63;;;-6.02;50.14